Terminal Aerodrome Forecast
Issued by NWS

Home | Current Version | Previous Version | Text Only | Print | Product List | Glossary On
Versions: 1 2 3 4 5 6 7 8 9 10 11 12 13 14 15 16 17 18
000
FTUS42 KTAE 191412 AAA
TAFECP
TAF AMD
KECP 191412Z 1914/2012 21010G20KT 2SM +TSRA BKN008CB OVC015
     FM191900 21010G15KT P6SM OVC015
     FM200100 21005KT P6SM SCT250
     FM200600 19004KT 5SM BR OVC007
     FM200900 00000KT 2SM BR OVC004=

USA.gov is the U.S. government's official web portal to all federal, state and local government web resources and services.